Aviation Digital Data Service (ADDS)

Output produced by METARs form (1338 UTC 26 August 2016)
found at http://aviationweather.gov/adds/metars/
 
KGSO 261120Z 2612/2712 04005KT P6SM BKN040 BKN250